sensor_id;sensor_type;location;lat;lon;timestamp;pressure;altitude;pressure_sealevel;temperature;humidity
11678;BME280;5895;41.950;24.372;2023-05-23T00:00:20;86719.81;;;9.69;100.00
11678;BME280;5895;41.950;24.372;2023-05-23T00:02:48;86722.66;;;9.68;100.00
11678;BME280;5895;41.950;24.372;2023-05-23T00:05:15;86715.91;;;9.67;100.00
11678;BME280;5895;41.950;24.372;2023-05-23T00:07:42;86720.06;;;9.68;100.00
11678;BME280;5895;41.950;24.372;2023-05-23T00:10:10;86722.66;;;9.68;100.00
11678;BME280;5895;41.950;24.372;2023-05-23T00:12:37;86723.19;;;9.70;100.00
11678;BME280;5895;41.950;24.372;2023-05-23T00:15:09;86727.41;;;9.71;100.00
11678;BME280;5895;41.950;24.372;2023-05-23T00:17:36;86723.78;;;9.72;100.00
11678;BME280;5895;41.950;24.372;2023-05-23T00:20:04;86725.00;;;9.69;100.00
11678;BME280;5895;41.950;24.372;2023-05-23T00:22:34;86718.59;;;9.72;100.00
11678;BME280;5895;41.950;24.372;2023-05-23T00:25:01;86726.50;;;9.77;100.00
11678;BME280;5895;41.950;24.372;2023-05-23T00:27:29;86725.91;;;9.75;100.00
11678;BME280;5895;41.950;24.372;2023-05-23T00:29:56;86726.50;;;9.77;100.00
11678;BME280;5895;41.950;24.372;2023-05-23T00:32:24;86719.28;;;9.79;100.00
11678;BME280;5895;41.950;24.372;2023-05-23T00:34:52;86711.38;;;9.74;100.00
11678;BME280;5895;41.950;24.372;2023-05-23T00:37:20;86715.00;;;9.73;100.00
11678;BME280;5895;41.950;24.372;2023-05-23T00:39:48;86718.59;;;9.72;100.00
11678;BME280;5895;41.950;24.372;2023-05-23T00:42:15;86722.22;;;9.71;100.00
11678;BME280;5895;41.950;24.372;2023-05-23T00:44:42;86718.03;;;9.70;100.00
11678;BME280;5895;41.950;24.372;2023-05-23T00:47:09;86725.59;;;9.60;100.00
11678;BME280;5895;41.950;24.372;2023-05-23T00:49:39;86712.72;;;9.65;100.00
11678;BME280;5895;41.950;24.372;2023-05-23T00:52:07;86710.03;;;9.60;100.00
11678;BME280;5895;41.950;24.372;2023-05-23T00:54:35;86708.00;;;9.62;100.00
11678;BME280;5895;41.950;24.372;2023-05-23T00:57:03;86708.13;;;9.55;100.00
11678;BME280;5895;41.950;24.372;2023-05-23T00:59:30;86707.31;;;9.54;100.00
11678;BME280;5895;41.950;24.372;2023-05-23T01:01:59;86704.94;;;9.53;100.00
11678;BME280;5895;41.950;24.372;2023-05-23T01:04:26;86715.53;;;9.51;100.00
11678;BME280;5895;41.950;24.372;2023-05-23T01:06:56;86705.41;;;9.50;100.00
11678;BME280;5895;41.950;24.372;2023-05-23T01:09:24;86700.09;;;9.45;100.00
11678;BME280;5895;41.950;24.372;2023-05-23T01:12:00;86701.00;;;9.50;100.00
11678;BME280;5895;41.950;24.372;2023-05-23T01:14:34;86691.53;;;9.44;100.00
11678;BME280;5895;41.950;24.372;2023-05-23T01:17:09;86709.53;;;9.39;100.00
11678;BME280;5895;41.950;24.372;2023-05-23T01:19:53;86704.78;;;9.36;100.00
11678;BME280;5895;41.950;24.372;2023-05-23T01:22:32;86696.47;;;9.34;100.00
11678;BME280;5895;41.950;24.372;2023-05-23T01:25:10;86690.50;;;9.34;100.00
11678;BME280;5895;41.950;24.372;2023-05-23T01:27:52;86685.31;;;9.34;100.00
11678;BME280;5895;41.950;24.372;2023-05-23T01:30:22;86687.38;;;9.32;100.00
11678;BME280;5895;41.950;24.372;2023-05-23T01:32:52;86686.53;;;9.31;100.00
11678;BME280;5895;41.950;24.372;2023-05-23T01:35:23;86680.94;;;9.34;100.00
11678;BME280;5895;41.950;24.372;2023-05-23T01:37:51;86675.75;;;9.34;100.00
11678;BME280;5895;41.950;24.372;2023-05-23T01:40:19;86682.50;;;9.35;100.00
11678;BME280;5895;41.950;24.372;2023-05-23T01:42:46;86677.34;;;9.35;100.00
11678;BME280;5895;41.950;24.372;2023-05-23T01:45:16;86677.91;;;9.37;100.00
11678;BME280;5895;41.950;24.372;2023-05-23T01:47:45;86674.75;;;9.35;100.00
11678;BME280;5895;41.950;24.372;2023-05-23T01:50:13;86682.88;;;9.39;100.00
11678;BME280;5895;41.950;24.372;2023-05-23T01:52:41;86681.06;;;9.39;100.00
11678;BME280;5895;41.950;24.372;2023-05-23T01:55:09;86678.47;;;9.39;100.00
11678;BME280;5895;41.950;24.372;2023-05-23T01:57:37;86680.59;;;9.42;100.00
11678;BME280;5895;41.950;24.372;2023-05-23T02:00:05;86672.84;;;9.42;100.00
11678;BME280;5895;41.950;24.372;2023-05-23T02:02:36;86683.78;;;9.44;100.00
11678;BME280;5895;41.950;24.372;2023-05-23T02:05:04;86678.59;;;9.44;100.00
11678;BME280;5895;41.950;24.372;2023-05-23T02:07:32;86681.19;;;9.44;100.00
11678;BME280;5895;41.950;24.372;2023-05-23T02:09:59;86678.00;;;9.42;100.00
11678;BME280;5895;41.950;24.372;2023-05-23T02:12:26;86676.00;;;9.44;100.00
11678;BME280;5895;41.950;24.372;2023-05-23T02:14:53;86675.41;;;9.42;100.00
11678;BME280;5895;41.950;24.372;2023-05-23T02:17:20;86670.81;;;9.44;100.00
11678;BME280;5895;41.950;24.372;2023-05-23T02:19:50;86661.69;;;9.42;100.00
11678;BME280;5895;41.950;24.372;2023-05-23T02:22:17;86674.88;;;9.40;100.00
11678;BME280;5895;41.950;24.372;2023-05-23T02:24:48;86667.56;;;9.37;100.00
11678;BME280;5895;41.950;24.372;2023-05-23T02:27:16;86670.59;;;9.34;100.00
11678;BME280;5895;41.950;24.372;2023-05-23T02:29:43;86675.31;;;9.37;100.00
11678;BME280;5895;41.950;24.372;2023-05-23T02:32:10;86687.69;;;9.35;100.00
11678;BME280;5895;41.950;24.372;2023-05-23T02:34:37;86675.53;;;9.36;100.00
11678;BME280;5895;41.950;24.372;2023-05-23T02:37:06;86680.94;;;9.34;100.00
11678;BME280;5895;41.950;24.372;2023-05-23T02:39:35;86671.38;;;9.35;100.00
11678;BME280;5895;41.950;24.372;2023-05-23T02:42:02;86673.16;;;9.34;100.00
11678;BME280;5895;41.950;24.372;2023-05-23T02:44:30;86677.78;;;9.32;100.00
11678;BME280;5895;41.950;24.372;2023-05-23T02:46:57;86677.78;;;9.32;100.00
11678;BME280;5895;41.950;24.372;2023-05-23T02:49:24;86675.75;;;9.34;100.00
11678;BME280;5895;41.950;24.372;2023-05-23T02:51:51;86679.38;;;9.33;100.00
11678;BME280;5895;41.950;24.372;2023-05-23T02:54:20;86679.38;;;9.33;100.00
11678;BME280;5895;41.950;24.372;2023-05-23T02:56:47;86670.03;;;9.32;100.00
11678;BME280;5895;41.950;24.372;2023-05-23T02:59:15;86677.00;;;9.32;100.00
11678;BME280;5895;41.950;24.372;2023-05-23T03:01:42;86679.00;;;9.30;100.00
11678;BME280;5895;41.950;24.372;2023-05-23T03:04:09;86680.25;;;9.27;100.00
11678;BME280;5895;41.950;24.372;2023-05-23T03:06:38;86679.66;;;9.25;100.00
11678;BME280;5895;41.950;24.372;2023-05-23T03:09:07;86679.13;;;9.23;100.00
11678;BME280;5895;41.950;24.372;2023-05-23T03:11:35;86678.34;;;9.22;100.00
11678;BME280;5895;41.950;24.372;2023-05-23T03:14:02;86675.97;;;9.21;100.00
11678;BME280;5895;41.950;24.372;2023-05-23T03:16:30;86671.78;;;9.20;100.00
11678;BME280;5895;41.950;24.372;2023-05-23T03:18:57;86668.88;;;9.16;100.00
11678;BME280;5895;41.950;24.372;2023-05-23T03:21:25;86670.66;;;9.16;100.00
11678;BME280;5895;41.950;24.372;2023-05-23T03:23:52;86673.69;;;9.13;100.00
11678;BME280;5895;41.950;24.372;2023-05-23T03:26:19;86679.31;;;9.10;100.00
11678;BME280;5895;41.950;24.372;2023-05-23T03:28:48;86676.94;;;9.08;100.00
11678;BME280;5895;41.950;24.372;2023-05-23T03:31:15;86686.50;;;9.08;100.00
11678;BME280;5895;41.950;24.372;2023-05-23T03:33:42;86674.03;;;9.05;100.00
11678;BME280;5895;41.950;24.372;2023-05-23T03:36:09;86680.22;;;9.04;100.00
11678;BME280;5895;41.950;24.372;2023-05-23T03:38:36;86680.22;;;9.04;100.00
11678;BME280;5895;41.950;24.372;2023-05-23T03:41:04;86677.63;;;9.04;100.00
11678;BME280;5895;41.950;24.372;2023-05-23T03:43:31;86670.06;;;9.02;100.00
11678;BME280;5895;41.950;24.372;2023-05-23T03:45:59;86675.03;;;9.04;100.00
11678;BME280;5895;41.950;24.372;2023-05-23T03:48:26;86678.28;;;8.99;100.00
11678;BME280;5895;41.950;24.372;2023-05-23T03:50:55;86682.22;;;9.01;100.00
11678;BME280;5895;41.950;24.372;2023-05-23T03:53:22;86677.81;;;9.02;100.00
11678;BME280;5895;41.950;24.372;2023-05-23T03:55:49;86681.78;;;9.05;100.00
11678;BME280;5895;41.950;24.372;2023-05-23T03:58:18;86679.75;;;9.07;100.00
11678;BME280;5895;41.950;24.372;2023-05-23T04:00:45;86685.84;;;9.12;100.00
11678;BME280;5895;41.950;24.372;2023-05-23T04:03:15;86682.59;;;9.17;100.00
11678;BME280;5895;41.950;24.372;2023-05-23T04:05:42;86679.53;;;9.20;100.00
11678;BME280;5895;41.950;24.372;2023-05-23T04:08:09;86683.50;;;9.22;100.00
11678;BME280;5895;41.950;24.372;2023-05-23T04:10:36;86683.50;;;9.22;100.00
11678;BME280;5895;41.950;24.372;2023-05-23T04:13:03;86689.38;;;9.30;100.00
11678;BME280;5895;41.950;24.372;2023-05-23T04:15:31;86682.50;;;9.35;100.00
11678;BME280;5895;41.950;24.372;2023-05-23T04:17:59;86681.28;;;9.38;100.00
11678;BME280;5895;41.950;24.372;2023-05-23T04:20:27;86681.63;;;9.41;100.00
11678;BME280;5895;41.950;24.372;2023-05-23T04:22:54;86679.38;;;9.45;100.00
11678;BME280;5895;41.950;24.372;2023-05-23T04:25:21;86680.72;;;9.47;100.00
11678;BME280;5895;41.950;24.372;2023-05-23T04:27:49;86681.88;;;9.51;100.00
11678;BME280;5895;41.950;24.372;2023-05-23T04:30:16;86690.78;;;9.56;100.00
11678;BME280;5895;41.950;24.372;2023-05-23T04:32:43;86687.50;;;9.60;100.00
11678;BME280;5895;41.950;24.372;2023-05-23T04:35:11;86690.09;;;9.60;100.00
11678;BME280;5895;41.950;24.372;2023-05-23T04:37:40;86690.78;;;9.67;100.00
11678;BME280;5895;41.950;24.372;2023-05-23T04:40:08;86694.28;;;9.73;100.00
11678;BME280;5895;41.950;24.372;2023-05-23T04:42:35;86691.81;;;9.78;100.00
11678;BME280;5895;41.950;24.372;2023-05-23T04:45:02;86691.69;;;9.85;100.00
11678;BME280;5895;41.950;24.372;2023-05-23T04:47:29;86694.16;;;9.91;100.00
11678;BME280;5895;41.950;24.372;2023-05-23T04:49:59;86693.84;;;9.99;100.00
11678;BME280;5895;41.950;24.372;2023-05-23T04:52:27;86692.81;;;10.12;100.00
11678;BME280;5895;41.950;24.372;2023-05-23T04:54:59;86699.00;;;10.23;100.00
11678;BME280;5895;41.950;24.372;2023-05-23T04:57:26;86704.44;;;10.33;100.00
11678;BME280;5895;41.950;24.372;2023-05-23T04:59:53;86701.22;;;10.43;100.00
11678;BME280;5895;41.950;24.372;2023-05-23T05:02:21;86703.25;;;10.52;100.00
11678;BME280;5895;41.950;24.372;2023-05-23T05:04:48;86694.66;;;10.64;100.00
11678;BME280;5895;41.950;24.372;2023-05-23T05:07:15;86696.44;;;10.75;100.00
11678;BME280;5895;41.950;24.372;2023-05-23T05:09:42;86702.59;;;10.85;100.00
11678;BME280;5895;41.950;24.372;2023-05-23T05:12:11;86702.81;;;10.96;100.00
11678;BME280;5895;41.950;24.372;2023-05-23T05:14:38;86703.78;;;11.06;100.00
11678;BME280;5895;41.950;24.372;2023-05-23T05:17:05;86702.84;;;11.12;100.00
11678;BME280;5895;41.950;24.372;2023-05-23T05:19:32;86703.03;;;11.23;100.00
11678;BME280;5895;41.950;24.372;2023-05-23T05:21:59;86710.44;;;11.31;100.00
11678;BME280;5895;41.950;24.372;2023-05-23T05:24:27;86706.66;;;11.38;100.00
11678;BME280;5895;41.950;24.372;2023-05-23T05:26:54;86703.47;;;11.48;100.00
11678;BME280;5895;41.950;24.372;2023-05-23T05:29:23;86698.97;;;11.60;100.00
11678;BME280;5895;41.950;24.372;2023-05-23T05:31:51;86708.69;;;11.65;100.00
11678;BME280;5895;41.950;24.372;2023-05-23T05:34:18;86713.50;;;11.73;100.00
11678;BME280;5895;41.950;24.372;2023-05-23T05:36:45;86707.31;;;11.91;100.00
11678;BME280;5895;41.950;24.372;2023-05-23T05:39:13;86714.84;;;12.09;100.00
11678;BME280;5895;41.950;24.372;2023-05-23T05:41:40;86717.69;;;12.25;100.00
11678;BME280;5895;41.950;24.372;2023-05-23T05:44:08;86718.47;;;12.42;100.00
11678;BME280;5895;41.950;24.372;2023-05-23T05:46:37;86718.09;;;12.55;100.00
11678;BME280;5895;41.950;24.372;2023-05-23T05:49:04;86719.28;;;12.64;100.00
11678;BME280;5895;41.950;24.372;2023-05-23T05:51:31;86723.03;;;12.74;99.50
11678;BME280;5895;41.950;24.372;2023-05-23T05:53:58;86723.88;;;12.79;98.97
11678;BME280;5895;41.950;24.372;2023-05-23T05:56:25;86720.34;;;12.85;99.28
11678;BME280;5895;41.950;24.372;2023-05-23T05:58:52;86721.72;;;12.93;98.83
11678;BME280;5895;41.950;24.372;2023-05-23T06:01:19;86724.66;;;13.02;98.61
11678;BME280;5895;41.950;24.372;2023-05-23T06:03:48;86727.34;;;13.07;97.93
11678;BME280;5895;41.950;24.372;2023-05-23T06:06:15;86727.47;;;13.17;98.17
11678;BME280;5895;41.950;24.372;2023-05-23T06:08:42;86727.91;;;13.31;97.02
11678;BME280;5895;41.950;24.372;2023-05-23T06:11:09;86730.13;;;13.44;96.87
11678;BME280;5895;41.950;24.372;2023-05-23T06:13:36;86722.84;;;13.46;96.02
11678;BME280;5895;41.950;24.372;2023-05-23T06:16:04;86728.41;;;13.55;95.35
11678;BME280;5895;41.950;24.372;2023-05-23T06:18:31;86726.13;;;13.58;96.35
11678;BME280;5895;41.950;24.372;2023-05-23T06:21:00;86723.50;;;13.58;95.96
11678;BME280;5895;41.950;24.372;2023-05-23T06:23:27;86722.22;;;13.61;94.71
11678;BME280;5895;41.950;24.372;2023-05-23T06:25:56;86712.38;;;13.68;94.79
11678;BME280;5895;41.950;24.372;2023-05-23T06:28:23;86709.03;;;13.72;94.59
11678;BME280;5895;41.950;24.372;2023-05-23T06:30:50;86705.69;;;13.77;94.62
11678;BME280;5895;41.950;24.372;2023-05-23T06:33:17;86707.16;;;13.95;95.83
11678;BME280;5895;41.950;24.372;2023-05-23T06:35:44;86702.06;;;14.10;95.47
11678;BME280;5895;41.950;24.372;2023-05-23T06:38:13;86690.16;;;14.24;94.73
11678;BME280;5895;41.950;24.372;2023-05-23T06:40:40;86697.53;;;14.33;93.23
11678;BME280;5895;41.950;24.372;2023-05-23T06:43:07;86697.56;;;14.38;93.39
11678;BME280;5895;41.950;24.372;2023-05-23T06:45:34;86699.94;;;14.44;93.35
11678;BME280;5895;41.950;24.372;2023-05-23T06:48:02;86699.22;;;14.49;92.44
11678;BME280;5895;41.950;24.372;2023-05-23T06:50:30;86703.19;;;14.57;92.96
11678;BME280;5895;41.950;24.372;2023-05-23T06:52:57;86703.25;;;14.67;92.82
11678;BME280;5895;41.950;24.372;2023-05-23T06:55:25;86699.66;;;14.78;92.02
11678;BME280;5895;41.950;24.372;2023-05-23T06:57:52;86700.22;;;14.85;91.70
11678;BME280;5895;41.950;24.372;2023-05-23T07:00:20;86696.84;;;14.90;90.99
11678;BME280;5895;41.950;24.372;2023-05-23T07:02:47;86697.38;;;14.97;91.11
11678;BME280;5895;41.950;24.372;2023-05-23T07:05:14;86695.88;;;15.06;90.97
11678;BME280;5895;41.950;24.372;2023-05-23T07:07:42;86704.00;;;15.15;91.13
11678;BME280;5895;41.950;24.372;2023-05-23T07:10:09;86708.47;;;15.24;90.51
11678;BME280;5895;41.950;24.372;2023-05-23T07:12:38;86702.50;;;15.34;89.20
11678;BME280;5895;41.950;24.372;2023-05-23T07:15:06;86709.06;;;15.42;89.79
11678;BME280;5895;41.950;24.372;2023-05-23T07:17:33;86704.91;;;15.46;89.26
11678;BME280;5895;41.950;24.372;2023-05-23T07:20:01;86698.91;;;15.55;88.44
11678;BME280;5895;41.950;24.372;2023-05-23T07:22:29;86702.88;;;15.63;88.18
11678;BME280;5895;41.950;24.372;2023-05-23T07:24:56;86708.63;;;15.65;86.90
11678;BME280;5895;41.950;24.372;2023-05-23T07:27:25;86705.53;;;15.73;86.71
11678;BME280;5895;41.950;24.372;2023-05-23T07:29:53;86708.16;;;15.83;86.86
11678;BME280;5895;41.950;24.372;2023-05-23T07:32:22;86700.31;;;15.94;87.34
11678;BME280;5895;41.950;24.372;2023-05-23T07:34:49;86708.72;;;16.06;86.35
11678;BME280;5895;41.950;24.372;2023-05-23T07:37:16;86705.06;;;16.12;86.09
11678;BME280;5895;41.950;24.372;2023-05-23T07:39:43;86701.38;;;16.08;86.02
11678;BME280;5895;41.950;24.372;2023-05-23T07:42:10;86703.72;;;16.09;86.07
11678;BME280;5895;41.950;24.372;2023-05-23T07:44:37;86705.59;;;16.19;86.25
11678;BME280;5895;41.950;24.372;2023-05-23T07:47:06;86700.88;;;16.26;86.94
11678;BME280;5895;41.950;24.372;2023-05-23T07:49:33;86708.72;;;16.36;86.75
11678;BME280;5895;41.950;24.372;2023-05-23T07:52:00;86703.75;;;16.40;85.73
11678;BME280;5895;41.950;24.372;2023-05-23T07:54:27;86707.41;;;16.49;85.95
11678;BME280;5895;41.950;24.372;2023-05-23T07:56:54;86703.22;;;16.58;84.59
11678;BME280;5895;41.950;24.372;2023-05-23T07:59:21;86706.63;;;16.64;84.81
11678;BME280;5895;41.950;24.372;2023-05-23T08:01:48;86704.53;;;16.71;83.98
11678;BME280;5895;41.950;24.372;2023-05-23T08:04:17;86707.69;;;16.73;83.57
11678;BME280;5895;41.950;24.372;2023-05-23T08:06:45;86707.66;;;16.83;84.48
11678;BME280;5895;41.950;24.372;2023-05-23T08:09:13;86704.25;;;16.88;84.20
11678;BME280;5895;41.950;24.372;2023-05-23T08:11:40;86710.25;;;16.99;82.73
11678;BME280;5895;41.950;24.372;2023-05-23T08:14:07;86711.81;;;16.95;82.86
11678;BME280;5895;41.950;24.372;2023-05-23T08:16:35;86711.06;;;16.69;83.34
11678;BME280;5895;41.950;24.372;2023-05-23T08:19:02;86707.66;;;16.68;83.34
11678;BME280;5895;41.950;24.372;2023-05-23T08:21:30;86718.66;;;16.70;83.87
11678;BME280;5895;41.950;24.372;2023-05-23T08:23:58;86718.66;;;16.70;83.32
11678;BME280;5895;41.950;24.372;2023-05-23T08:26:25;86718.41;;;16.82;82.49
11678;BME280;5895;41.950;24.372;2023-05-23T08:28:59;86717.63;;;16.86;83.05
11678;BME280;5895;41.950;24.372;2023-05-23T08:31:27;86710.81;;;16.75;82.14
11678;BME280;5895;41.950;24.372;2023-05-23T08:33:54;86710.81;;;16.85;81.96
11678;BME280;5895;41.950;24.372;2023-05-23T08:36:21;86708.16;;;17.01;82.30
11678;BME280;5895;41.950;24.372;2023-05-23T08:38:50;86710.75;;;17.06;78.75
11678;BME280;5895;41.950;24.372;2023-05-23T08:41:19;86713.63;;;17.14;81.22
11678;BME280;5895;41.950;24.372;2023-05-23T08:43:47;86709.13;;;17.25;80.20
11678;BME280;5895;41.950;24.372;2023-05-23T08:46:14;86707.78;;;17.38;79.77
11678;BME280;5895;41.950;24.372;2023-05-23T08:48:42;86712.69;;;17.55;80.45
11678;BME280;5895;41.950;24.372;2023-05-23T08:51:11;86712.69;;;17.55;79.97
11678;BME280;5895;41.950;24.372;2023-05-23T08:53:41;86713.19;;;17.72;80.11
11678;BME280;5895;41.950;24.372;2023-05-23T08:56:10;86714.16;;;17.86;79.96
11678;BME280;5895;41.950;24.372;2023-05-23T08:58:38;86718.38;;;17.82;80.30
11678;BME280;5895;41.950;24.372;2023-05-23T09:01:06;86714.94;;;17.92;79.88
11678;BME280;5895;41.950;24.372;2023-05-23T09:03:34;86707.78;;;18.03;79.88
11678;BME280;5895;41.950;24.372;2023-05-23T09:06:02;86706.44;;;18.05;78.93
11678;BME280;5895;41.950;24.372;2023-05-23T09:08:30;86705.53;;;18.25;78.52
11678;BME280;5895;41.950;24.372;2023-05-23T09:10:57;86712.25;;;18.41;77.35
11678;BME280;5895;41.950;24.372;2023-05-23T09:13:28;86710.81;;;18.59;75.47
11678;BME280;5895;41.950;24.372;2023-05-23T09:15:57;86712.75;;;18.43;77.03
11678;BME280;5895;41.950;24.372;2023-05-23T09:18:32;86716.06;;;18.20;74.14
11678;BME280;5895;41.950;24.372;2023-05-23T09:21:00;86721.47;;;17.94;78.06
11678;BME280;5895;41.950;24.372;2023-05-23T09:23:29;86725.22;;;17.73;79.26
11678;BME280;5895;41.950;24.372;2023-05-23T09:26:01;86719.47;;;17.66;76.47
11678;BME280;5895;41.950;24.372;2023-05-23T09:28:30;86721.28;;;17.81;77.14
11678;BME280;5895;41.950;24.372;2023-05-23T09:30:57;86715.97;;;17.91;78.84
11678;BME280;5895;41.950;24.372;2023-05-23T09:33:32;86713.25;;;18.06;71.10
11678;BME280;5895;41.950;24.372;2023-05-23T09:35:59;86703.47;;;18.17;77.08
11678;BME280;5895;41.950;24.372;2023-05-23T09:38:27;86694.50;;;18.23;75.27
11678;BME280;5895;41.950;24.372;2023-05-23T09:40:55;86704.28;;;18.12;74.87
11678;BME280;5895;41.950;24.372;2023-05-23T09:43:22;86704.63;;;18.01;74.22
11678;BME280;5895;41.950;24.372;2023-05-23T09:45:52;86724.19;;;17.69;76.66
11678;BME280;5895;41.950;24.372;2023-05-23T09:48:19;86713.16;;;17.67;78.48
11678;BME280;5895;41.950;24.372;2023-05-23T09:50:53;86714.75;;;17.73;80.64
11678;BME280;5895;41.950;24.372;2023-05-23T09:53:20;86715.25;;;17.80;79.82
11678;BME280;5895;41.950;24.372;2023-05-23T09:55:50;86718.84;;;17.89;80.03
11678;BME280;5895;41.950;24.372;2023-05-23T09:58:18;86714.91;;;17.97;81.33
11678;BME280;5895;41.950;24.372;2023-05-23T10:00:46;86713.50;;;18.10;80.94
11678;BME280;5895;41.950;24.372;2023-05-23T10:03:20;86713.91;;;18.27;78.75
11678;BME280;5895;41.950;24.372;2023-05-23T10:05:54;86724.88;;;18.73;77.17
11678;BME280;5895;41.950;24.372;2023-05-23T10:08:27;86705.03;;;19.20;74.26
11678;BME280;5895;41.950;24.372;2023-05-23T10:14:00;86704.84;;;19.65;76.19
11678;BME280;5895;41.950;24.372;2023-05-23T10:16:35;86706.00;;;19.96;71.25
11678;BME280;5895;41.950;24.372;2023-05-23T10:19:20;86705.75;;;19.74;68.54
11678;BME280;5895;41.950;24.372;2023-05-23T10:21:52;86707.59;;;19.49;76.12
11678;BME280;5895;41.950;24.372;2023-05-23T10:24:21;86698.88;;;19.54;76.99
11678;BME280;5895;41.950;24.372;2023-05-23T10:26:48;86702.25;;;19.60;75.44
11678;BME280;5895;41.950;24.372;2023-05-23T10:29:15;86699.44;;;19.51;74.69
11678;BME280;5895;41.950;24.372;2023-05-23T10:31:43;86710.53;;;19.19;75.21
11678;BME280;5895;41.950;24.372;2023-05-23T10:34:19;86709.78;;;18.89;73.15
11678;BME280;5895;41.950;24.372;2023-05-23T10:36:55;86712.00;;;18.77;73.52
11678;BME280;5895;41.950;24.372;2023-05-23T10:39:31;86708.91;;;18.65;72.39
11678;BME280;5895;41.950;24.372;2023-05-23T10:42:03;86695.03;;;18.93;74.66
11678;BME280;5895;41.950;24.372;2023-05-23T10:44:35;86695.38;;;19.11;71.21
11678;BME280;5895;41.950;24.372;2023-05-23T10:47:03;86690.47;;;19.28;72.21
11678;BME280;5895;41.950;24.372;2023-05-23T10:49:42;86697.03;;;19.01;63.25
11678;BME280;5895;41.950;24.372;2023-05-23T10:52:10;86694.22;;;19.22;72.17
11678;BME280;5895;41.950;24.372;2023-05-23T10:54:42;86694.41;;;19.31;66.08
11678;BME280;5895;41.950;24.372;2023-05-23T10:57:10;86692.25;;;19.56;72.65
11678;BME280;5895;41.950;24.372;2023-05-23T10:59:38;86701.22;;;19.55;72.09
11678;BME280;5895;41.950;24.372;2023-05-23T11:02:12;86700.88;;;19.38;69.19
11678;BME280;5895;41.950;24.372;2023-05-23T11:04:42;86708.25;;;19.65;71.55
11678;BME280;5895;41.950;24.372;2023-05-23T11:07:27;86694.38;;;19.60;55.91
11678;BME280;5895;41.950;24.372;2023-05-23T11:10:08;86699.00;;;19.68;63.16
11678;BME280;5895;41.950;24.372;2023-05-23T11:12:36;86706.47;;;20.03;71.86
11678;BME280;5895;41.950;24.372;2023-05-23T11:15:19;86702.59;;;19.96;64.45
11678;BME280;5895;41.950;24.372;2023-05-23T11:17:52;86712.88;;;19.73;70.18
11678;BME280;5895;41.950;24.372;2023-05-23T11:20:22;86712.44;;;19.42;72.25
11678;BME280;5895;41.950;24.372;2023-05-23T11:22:53;86713.47;;;19.41;74.69
11678;BME280;5895;41.950;24.372;2023-05-23T11:25:38;86710.19;;;19.54;66.79
11678;BME280;5895;41.950;24.372;2023-05-23T11:28:06;86700.81;;;19.91;73.51
11678;BME280;5895;41.950;24.372;2023-05-23T11:30:34;86702.00;;;19.80;73.59
11678;BME280;5895;41.950;24.372;2023-05-23T11:33:06;86706.59;;;19.93;71.38
11678;BME280;5895;41.950;24.372;2023-05-23T11:35:40;86704.56;;;20.28;68.94
11678;BME280;5895;41.950;24.372;2023-05-23T11:38:08;86707.59;;;20.35;73.24
11678;BME280;5895;41.950;24.372;2023-05-23T11:40:37;86703.34;;;20.58;70.44
11678;BME280;5895;41.950;24.372;2023-05-23T11:43:06;86709.03;;;20.84;70.05
11678;BME280;5895;41.950;24.372;2023-05-23T11:45:34;86703.53;;;20.80;67.58
11678;BME280;5895;41.950;24.372;2023-05-23T11:48:05;86700.19;;;20.75;61.84
11678;BME280;5895;41.950;24.372;2023-05-23T11:50:33;86704.56;;;20.66;67.63
11678;BME280;5895;41.950;24.372;2023-05-23T11:53:02;86702.97;;;20.65;62.64
11678;BME280;5895;41.950;24.372;2023-05-23T11:55:30;86713.03;;;20.63;69.85
11678;BME280;5895;41.950;24.372;2023-05-23T11:57:57;86708.06;;;20.61;65.46
11678;BME280;5895;41.950;24.372;2023-05-23T12:00:25;86712.88;;;20.73;68.75
11678;BME280;5895;41.950;24.372;2023-05-23T12:02:52;86700.44;;;20.92;69.02
11678;BME280;5895;41.950;24.372;2023-05-23T12:05:19;86699.28;;;20.98;67.14
11678;BME280;5895;41.950;24.372;2023-05-23T12:07:47;86696.16;;;20.96;64.66
11678;BME280;5895;41.950;24.372;2023-05-23T12:10:17;86687.06;;;20.89;61.28
11678;BME280;5895;41.950;24.372;2023-05-23T12:12:46;86695.84;;;20.98;67.06
11678;BME280;5895;41.950;24.372;2023-05-23T12:15:13;86691.28;;;21.03;66.75
11678;BME280;5895;41.950;24.372;2023-05-23T12:17:44;86693.03;;;20.62;63.06
11678;BME280;5895;41.950;24.372;2023-05-23T12:20:11;86694.63;;;20.20;66.90
11678;BME280;5895;41.950;24.372;2023-05-23T12:22:38;86692.78;;;20.01;67.56
11678;BME280;5895;41.950;24.372;2023-05-23T12:25:08;86688.59;;;20.19;65.03
11678;BME280;5895;41.950;24.372;2023-05-23T12:27:39;86694.06;;;20.42;64.09
11678;BME280;5895;41.950;24.372;2023-05-23T12:30:10;86689.44;;;20.71;65.06
11678;BME280;5895;41.950;24.372;2023-05-23T12:32:39;86681.97;;;20.92;63.57
11678;BME280;5895;41.950;24.372;2023-05-23T12:35:07;86688.94;;;21.02;66.37
11678;BME280;5895;41.950;24.372;2023-05-23T12:37:38;86680.94;;;21.07;63.79
11678;BME280;5895;41.950;24.372;2023-05-23T12:40:12;86691.31;;;21.17;60.97
11678;BME280;5895;41.950;24.372;2023-05-23T12:42:48;86682.53;;;21.22;53.00
11678;BME280;5895;41.950;24.372;2023-05-23T12:45:16;86682.88;;;21.34;65.93
11678;BME280;5895;41.950;24.372;2023-05-23T12:47:44;86687.28;;;21.52;64.17
11678;BME280;5895;41.950;24.372;2023-05-23T12:50:11;86685.91;;;21.55;63.21
11678;BME280;5895;41.950;24.372;2023-05-23T12:52:38;86678.16;;;21.31;62.96
11678;BME280;5895;41.950;24.372;2023-05-23T12:55:06;86680.72;;;21.03;63.05
11678;BME280;5895;41.950;24.372;2023-05-23T12:57:34;86673.50;;;20.95;61.94
11678;BME280;5895;41.950;24.372;2023-05-23T13:00:03;86672.91;;;20.98;63.67
11678;BME280;5895;41.950;24.372;2023-05-23T13:02:31;86668.84;;;21.06;63.20
11678;BME280;5895;41.950;24.372;2023-05-23T13:04:58;86668.94;;;21.14;63.36
11678;BME280;5895;41.950;24.372;2023-05-23T13:07:25;86665.34;;;21.24;65.07
11678;BME280;5895;41.950;24.372;2023-05-23T13:09:52;86663.81;;;21.37;63.44